sensor_id;sensor_type;location;lat;lon;timestamp;temperature;humidity
10175;DHT22;18221;38.704;0.152;2023-04-24T00:05:35;18.40;99.90
10175;DHT22;18221;38.704;0.152;2023-04-24T00:08:04;18.30;99.90
10175;DHT22;18221;38.704;0.152;2023-04-24T00:10:32;18.30;99.90
10175;DHT22;18221;38.704;0.152;2023-04-24T00:13:02;18.20;99.90
10175;DHT22;18221;38.704;0.152;2023-04-24T00:15:31;18.20;99.90
10175;DHT22;18221;38.704;0.152;2023-04-24T00:18:01;18.20;99.90
10175;DHT22;18221;38.704;0.152;2023-04-24T00:20:35;18.20;99.90
10175;DHT22;18221;38.704;0.152;2023-04-24T00:23:03;18.20;99.90
10175;DHT22;18221;38.704;0.152;2023-04-24T00:25:32;18.30;99.90
10175;DHT22;18221;38.704;0.152;2023-04-24T00:28:00;18.30;99.90
10175;DHT22;18221;38.704;0.152;2023-04-24T00:30:29;18.30;99.90
10175;DHT22;18221;38.704;0.152;2023-04-24T00:32:58;18.30;99.90
10175;DHT22;18221;38.704;0.152;2023-04-24T00:35:26;18.30;99.90
10175;DHT22;18221;38.704;0.152;2023-04-24T00:37:56;18.30;99.90
10175;DHT22;18221;38.704;0.152;2023-04-24T00:40:26;18.30;99.90
10175;DHT22;18221;38.704;0.152;2023-04-24T00:42:55;18.20;99.90
10175;DHT22;18221;38.704;0.152;2023-04-24T00:45:24;18.20;99.90
10175;DHT22;18221;38.704;0.152;2023-04-24T00:47:53;18.10;99.90
10175;DHT22;18221;38.704;0.152;2023-04-24T00:50:23;18.10;99.90
10175;DHT22;18221;38.704;0.152;2023-04-24T00:52:52;18.30;99.90
10175;DHT22;18221;38.704;0.152;2023-04-24T00:55:23;18.40;99.90
10175;DHT22;18221;38.704;0.152;2023-04-24T00:57:52;18.40;99.90
10175;DHT22;18221;38.704;0.152;2023-04-24T01:00:21;18.40;99.90
10175;DHT22;18221;38.704;0.152;2023-04-24T01:02:50;18.40;99.90
10175;DHT22;18221;38.704;0.152;2023-04-24T01:05:20;18.40;99.90
10175;DHT22;18221;38.704;0.152;2023-04-24T01:07:49;18.50;99.90
10175;DHT22;18221;38.704;0.152;2023-04-24T01:10:18;18.60;99.90
10175;DHT22;18221;38.704;0.152;2023-04-24T01:12:48;18.50;99.90
10175;DHT22;18221;38.704;0.152;2023-04-24T01:15:18;18.50;99.90
10175;DHT22;18221;38.704;0.152;2023-04-24T01:17:46;18.50;99.90
10175;DHT22;18221;38.704;0.152;2023-04-24T01:20:14;18.50;99.90
10175;DHT22;18221;38.704;0.152;2023-04-24T01:22:45;18.50;99.90
10175;DHT22;18221;38.704;0.152;2023-04-24T01:25:14;18.40;99.90
10175;DHT22;18221;38.704;0.152;2023-04-24T01:27:43;18.40;99.90
10175;DHT22;18221;38.704;0.152;2023-04-24T01:30:13;18.40;99.90
10175;DHT22;18221;38.704;0.152;2023-04-24T01:32:42;18.30;99.90
10175;DHT22;18221;38.704;0.152;2023-04-24T01:35:12;18.30;99.90
10175;DHT22;18221;38.704;0.152;2023-04-24T01:37:41;18.20;99.90
10175;DHT22;18221;38.704;0.152;2023-04-24T01:40:12;18.20;99.90
10175;DHT22;18221;38.704;0.152;2023-04-24T01:42:43;18.10;99.90
10175;DHT22;18221;38.704;0.152;2023-04-24T01:45:13;18.00;99.90
10175;DHT22;18221;38.704;0.152;2023-04-24T01:47:42;18.00;99.90
10175;DHT22;18221;38.704;0.152;2023-04-24T01:50:12;17.90;99.90
10175;DHT22;18221;38.704;0.152;2023-04-24T01:52:41;17.90;99.90
10175;DHT22;18221;38.704;0.152;2023-04-24T01:55:11;17.80;99.90
10175;DHT22;18221;38.704;0.152;2023-04-24T01:57:40;17.80;99.90
10175;DHT22;18221;38.704;0.152;2023-04-24T02:00:09;17.80;99.90
10175;DHT22;18221;38.704;0.152;2023-04-24T02:02:40;17.80;99.90
10175;DHT22;18221;38.704;0.152;2023-04-24T02:05:09;17.80;99.90
10175;DHT22;18221;38.704;0.152;2023-04-24T02:07:38;17.70;99.90
10175;DHT22;18221;38.704;0.152;2023-04-24T02:10:07;17.70;99.90
10175;DHT22;18221;38.704;0.152;2023-04-24T02:12:37;17.70;99.90
10175;DHT22;18221;38.704;0.152;2023-04-24T02:15:06;17.80;99.90
10175;DHT22;18221;38.704;0.152;2023-04-24T02:17:35;17.70;99.90
10175;DHT22;18221;38.704;0.152;2023-04-24T02:20:09;17.60;99.90
10175;DHT22;18221;38.704;0.152;2023-04-24T02:22:38;17.60;99.90
10175;DHT22;18221;38.704;0.152;2023-04-24T02:25:07;17.60;99.90
10175;DHT22;18221;38.704;0.152;2023-04-24T02:27:38;17.60;99.90
10175;DHT22;18221;38.704;0.152;2023-04-24T02:30:07;17.60;99.90
10175;DHT22;18221;38.704;0.152;2023-04-24T02:32:37;17.60;99.90
10175;DHT22;18221;38.704;0.152;2023-04-24T02:35:08;17.60;99.90
10175;DHT22;18221;38.704;0.152;2023-04-24T02:37:37;17.60;99.90
10175;DHT22;18221;38.704;0.152;2023-04-24T02:40:07;17.60;99.90
10175;DHT22;18221;38.704;0.152;2023-04-24T02:42:38;17.60;99.90
10175;DHT22;18221;38.704;0.152;2023-04-24T02:45:07;17.60;99.90
10175;DHT22;18221;38.704;0.152;2023-04-24T02:47:36;17.50;99.90
10175;DHT22;18221;38.704;0.152;2023-04-24T02:50:06;17.70;99.90
10175;DHT22;18221;38.704;0.152;2023-04-24T02:52:35;17.50;99.90
10175;DHT22;18221;38.704;0.152;2023-04-24T02:55:04;17.50;99.90
10175;DHT22;18221;38.704;0.152;2023-04-24T02:57:34;17.50;99.90
10175;DHT22;18221;38.704;0.152;2023-04-24T03:00:08;17.50;99.90
10175;DHT22;18221;38.704;0.152;2023-04-24T03:02:37;17.50;99.90
10175;DHT22;18221;38.704;0.152;2023-04-24T03:05:07;17.50;99.90
10175;DHT22;18221;38.704;0.152;2023-04-24T03:07:38;17.50;99.90
10175;DHT22;18221;38.704;0.152;2023-04-24T03:10:07;17.50;99.90
10175;DHT22;18221;38.704;0.152;2023-04-24T03:12:36;17.50;99.90
10175;DHT22;18221;38.704;0.152;2023-04-24T03:15:08;17.40;99.90
10175;DHT22;18221;38.704;0.152;2023-04-24T03:17:38;17.40;99.90
10175;DHT22;18221;38.704;0.152;2023-04-24T03:20:10;17.40;99.90
10175;DHT22;18221;38.704;0.152;2023-04-24T03:22:38;17.20;99.90
10175;DHT22;18221;38.704;0.152;2023-04-24T03:25:08;17.30;99.90
10175;DHT22;18221;38.704;0.152;2023-04-24T03:27:37;17.30;99.90
10175;DHT22;18221;38.704;0.152;2023-04-24T03:30:08;17.30;99.90
10175;DHT22;18221;38.704;0.152;2023-04-24T03:32:37;17.30;99.90
10175;DHT22;18221;38.704;0.152;2023-04-24T03:35:07;17.30;99.90
10175;DHT22;18221;38.704;0.152;2023-04-24T03:37:36;17.30;99.90
10175;DHT22;18221;38.704;0.152;2023-04-24T03:40:07;17.30;99.90
10175;DHT22;18221;38.704;0.152;2023-04-24T03:42:39;17.30;99.90
10175;DHT22;18221;38.704;0.152;2023-04-24T03:45:10;17.20;99.90
10175;DHT22;18221;38.704;0.152;2023-04-24T03:47:39;17.20;99.90
10175;DHT22;18221;38.704;0.152;2023-04-24T03:50:08;17.20;99.90
10175;DHT22;18221;38.704;0.152;2023-04-24T03:52:37;17.20;99.90
10175;DHT22;18221;38.704;0.152;2023-04-24T03:55:07;17.20;99.90
10175;DHT22;18221;38.704;0.152;2023-04-24T03:57:41;17.20;99.90
10175;DHT22;18221;38.704;0.152;2023-04-24T04:00:13;17.20;99.90
10175;DHT22;18221;38.704;0.152;2023-04-24T04:02:42;17.10;99.90
10175;DHT22;18221;38.704;0.152;2023-04-24T04:05:10;17.10;99.90
10175;DHT22;18221;38.704;0.152;2023-04-24T04:07:42;17.10;99.90
10175;DHT22;18221;38.704;0.152;2023-04-24T04:10:11;17.10;99.90
10175;DHT22;18221;38.704;0.152;2023-04-24T04:12:40;17.10;99.90
10175;DHT22;18221;38.704;0.152;2023-04-24T04:15:11;17.20;99.90
10175;DHT22;18221;38.704;0.152;2023-04-24T04:17:39;17.20;99.90
10175;DHT22;18221;38.704;0.152;2023-04-24T04:20:12;17.20;99.90
10175;DHT22;18221;38.704;0.152;2023-04-24T04:22:41;17.20;99.90
10175;DHT22;18221;38.704;0.152;2023-04-24T04:25:10;17.20;99.90
10175;DHT22;18221;38.704;0.152;2023-04-24T04:27:39;17.20;99.90
10175;DHT22;18221;38.704;0.152;2023-04-24T04:30:09;17.20;99.90
10175;DHT22;18221;38.704;0.152;2023-04-24T04:32:40;17.20;99.90
10175;DHT22;18221;38.704;0.152;2023-04-24T04:35:08;17.20;99.90
10175;DHT22;18221;38.704;0.152;2023-04-24T04:37:41;17.20;99.90
10175;DHT22;18221;38.704;0.152;2023-04-24T04:40:10;17.20;99.90
10175;DHT22;18221;38.704;0.152;2023-04-24T04:42:39;17.20;99.90
10175;DHT22;18221;38.704;0.152;2023-04-24T04:45:09;17.10;99.90
10175;DHT22;18221;38.704;0.152;2023-04-24T04:47:43;17.20;99.90
10175;DHT22;18221;38.704;0.152;2023-04-24T04:50:12;17.10;99.90
10175;DHT22;18221;38.704;0.152;2023-04-24T04:52:43;17.10;99.90
10175;DHT22;18221;38.704;0.152;2023-04-24T04:55:12;17.10;99.90
10175;DHT22;18221;38.704;0.152;2023-04-24T04:57:41;17.10;99.90
10175;DHT22;18221;38.704;0.152;2023-04-24T05:00:12;17.10;99.90
10175;DHT22;18221;38.704;0.152;2023-04-24T05:02:42;17.10;99.90
10175;DHT22;18221;38.704;0.152;2023-04-24T05:05:11;17.10;99.90
10175;DHT22;18221;38.704;0.152;2023-04-24T05:07:40;17.10;99.90
10175;DHT22;18221;38.704;0.152;2023-04-24T05:10:09;17.10;99.90
10175;DHT22;18221;38.704;0.152;2023-04-24T05:12:41;17.10;99.90
10175;DHT22;18221;38.704;0.152;2023-04-24T05:15:12;17.10;99.90
10175;DHT22;18221;38.704;0.152;2023-04-24T05:17:41;17.10;99.90
10175;DHT22;18221;38.704;0.152;2023-04-24T05:20:10;17.10;99.90
10175;DHT22;18221;38.704;0.152;2023-04-24T05:22:39;17.00;99.90
10175;DHT22;18221;38.704;0.152;2023-04-24T05:25:08;17.00;99.90
10175;DHT22;18221;38.704;0.152;2023-04-24T05:27:38;17.10;99.90
10175;DHT22;18221;38.704;0.152;2023-04-24T05:30:09;17.10;99.90
10175;DHT22;18221;38.704;0.152;2023-04-24T05:32:40;17.10;99.90
10175;DHT22;18221;38.704;0.152;2023-04-24T05:35:09;17.10;99.90
10175;DHT22;18221;38.704;0.152;2023-04-24T05:37:38;17.10;99.90
10175;DHT22;18221;38.704;0.152;2023-04-24T05:40:10;17.10;99.90
10175;DHT22;18221;38.704;0.152;2023-04-24T05:42:39;17.40;99.90
10175;DHT22;18221;38.704;0.152;2023-04-24T05:45:09;17.00;99.90
10175;DHT22;18221;38.704;0.152;2023-04-24T05:47:43;17.10;99.90
10175;DHT22;18221;38.704;0.152;2023-04-24T05:50:13;17.00;99.90
10175;DHT22;18221;38.704;0.152;2023-04-24T05:52:42;17.00;99.90
10175;DHT22;18221;38.704;0.152;2023-04-24T05:55:11;17.00;99.90
10175;DHT22;18221;38.704;0.152;2023-04-24T05:57:40;17.00;99.90
10175;DHT22;18221;38.704;0.152;2023-04-24T06:00:12;16.90;99.90
10175;DHT22;18221;38.704;0.152;2023-04-24T06:02:42;19.60;99.90
10175;DHT22;18221;38.704;0.152;2023-04-24T06:05:11;17.00;99.90
10175;DHT22;18221;38.704;0.152;2023-04-24T06:07:41;17.00;99.90
10175;DHT22;18221;38.704;0.152;2023-04-24T06:10:10;17.00;99.90
10175;DHT22;18221;38.704;0.152;2023-04-24T06:12:38;17.10;99.90
10175;DHT22;18221;38.704;0.152;2023-04-24T06:15:08;17.00;99.90
10175;DHT22;18221;38.704;0.152;2023-04-24T06:17:39;17.00;99.90
10175;DHT22;18221;38.704;0.152;2023-04-24T06:20:09;17.00;99.90
10175;DHT22;18221;38.704;0.152;2023-04-24T06:22:38;17.10;99.90
10175;DHT22;18221;38.704;0.152;2023-04-24T06:25:08;17.10;99.90
10175;DHT22;18221;38.704;0.152;2023-04-24T06:27:37;17.10;99.90
10175;DHT22;18221;38.704;0.152;2023-04-24T06:30:07;17.10;99.90
10175;DHT22;18221;38.704;0.152;2023-04-24T06:32:39;17.00;99.90
10175;DHT22;18221;38.704;0.152;2023-04-24T06:35:09;17.10;99.90
10175;DHT22;18221;38.704;0.152;2023-04-24T06:37:39;17.10;99.90
10175;DHT22;18221;38.704;0.152;2023-04-24T06:40:10;17.20;99.90
10175;DHT22;18221;38.704;0.152;2023-04-24T06:42:39;17.20;99.90
10175;DHT22;18221;38.704;0.152;2023-04-24T06:45:09;17.30;99.90
10175;DHT22;18221;38.704;0.152;2023-04-24T06:47:39;17.30;99.90
10175;DHT22;18221;38.704;0.152;2023-04-24T06:50:09;17.40;99.90
10175;DHT22;18221;38.704;0.152;2023-04-24T06:52:40;17.50;99.90
10175;DHT22;18221;38.704;0.152;2023-04-24T06:55:09;17.50;99.90
10175;DHT22;18221;38.704;0.152;2023-04-24T06:57:39;17.50;99.90
10175;DHT22;18221;38.704;0.152;2023-04-24T07:00:09;17.60;99.90
10175;DHT22;18221;38.704;0.152;2023-04-24T07:02:40;17.60;99.90
10175;DHT22;18221;38.704;0.152;2023-04-24T07:05:09;17.60;99.90
10175;DHT22;18221;38.704;0.152;2023-04-24T07:07:39;17.70;99.90
10175;DHT22;18221;38.704;0.152;2023-04-24T07:10:09;17.70;99.90
10175;DHT22;18221;38.704;0.152;2023-04-24T07:12:40;17.70;99.90
10175;DHT22;18221;38.704;0.152;2023-04-24T07:15:16;17.80;99.90
10175;DHT22;18221;38.704;0.152;2023-04-24T07:17:46;17.90;99.90
10175;DHT22;18221;38.704;0.152;2023-04-24T07:20:15;18.00;99.90
10175;DHT22;18221;38.704;0.152;2023-04-24T07:22:44;18.10;99.90
10175;DHT22;18221;38.704;0.152;2023-04-24T07:25:14;18.20;99.90
10175;DHT22;18221;38.704;0.152;2023-04-24T07:27:43;18.30;99.90
10175;DHT22;18221;38.704;0.152;2023-04-24T07:30:12;18.40;99.90
10175;DHT22;18221;38.704;0.152;2023-04-24T07:32:41;18.50;99.90
10175;DHT22;18221;38.704;0.152;2023-04-24T07:35:11;18.70;99.90
10175;DHT22;18221;38.704;0.152;2023-04-24T07:37:43;19.00;99.90
10175;DHT22;18221;38.704;0.152;2023-04-24T07:40:12;19.20;99.90
10175;DHT22;18221;38.704;0.152;2023-04-24T07:42:41;19.40;99.90
10175;DHT22;18221;38.704;0.152;2023-04-24T07:45:10;19.50;99.90
10175;DHT22;18221;38.704;0.152;2023-04-24T07:47:39;19.70;99.90
10175;DHT22;18221;38.704;0.152;2023-04-24T07:50:12;19.80;99.90
10175;DHT22;18221;38.704;0.152;2023-04-24T07:52:40;20.00;99.90
10175;DHT22;18221;38.704;0.152;2023-04-24T07:55:09;20.20;99.90
10175;DHT22;18221;38.704;0.152;2023-04-24T07:57:37;20.20;99.90
10175;DHT22;18221;38.704;0.152;2023-04-24T08:00:07;20.20;99.90
10175;DHT22;18221;38.704;0.152;2023-04-24T08:02:36;20.30;99.90
10175;DHT22;18221;38.704;0.152;2023-04-24T08:05:06;20.20;99.90
10175;DHT22;18221;38.704;0.152;2023-04-24T08:07:37;20.20;99.90
10175;DHT22;18221;38.704;0.152;2023-04-24T08:10:10;20.10;99.90
10175;DHT22;18221;38.704;0.152;2023-04-24T08:12:39;20.10;99.90
10175;DHT22;18221;38.704;0.152;2023-04-24T08:15:10;20.10;99.90
10175;DHT22;18221;38.704;0.152;2023-04-24T08:17:38;20.10;99.90
10175;DHT22;18221;38.704;0.152;2023-04-24T08:20:11;20.10;99.90
10175;DHT22;18221;38.704;0.152;2023-04-24T08:22:43;19.90;99.90
10175;DHT22;18221;38.704;0.152;2023-04-24T08:25:13;19.90;99.90
10175;DHT22;18221;38.704;0.152;2023-04-24T08:27:43;20.00;99.90
10175;DHT22;18221;38.704;0.152;2023-04-24T08:30:12;19.90;99.90
10175;DHT22;18221;38.704;0.152;2023-04-24T08:32:41;19.90;99.90
10175;DHT22;18221;38.704;0.152;2023-04-24T08:35:10;20.00;99.90
10175;DHT22;18221;38.704;0.152;2023-04-24T08:37:39;20.10;99.90
10175;DHT22;18221;38.704;0.152;2023-04-24T08:40:13;20.10;99.90
10175;DHT22;18221;38.704;0.152;2023-04-24T08:42:45;20.20;99.90
10175;DHT22;18221;38.704;0.152;2023-04-24T08:45:16;20.20;99.90
10175;DHT22;18221;38.704;0.152;2023-04-24T08:47:54;20.20;99.90
10175;DHT22;18221;38.704;0.152;2023-04-24T08:50:24;20.20;99.90
10175;DHT22;18221;38.704;0.152;2023-04-24T08:52:53;20.30;99.90
10175;DHT22;18221;38.704;0.152;2023-04-24T08:55:25;20.40;99.90
10175;DHT22;18221;38.704;0.152;2023-04-24T08:57:55;20.30;99.90
10175;DHT22;18221;38.704;0.152;2023-04-24T09:00:25;20.30;99.90
10175;DHT22;18221;38.704;0.152;2023-04-24T09:02:56;20.30;99.90
10175;DHT22;18221;38.704;0.152;2023-04-24T09:05:27;20.40;99.90
10175;DHT22;18221;38.704;0.152;2023-04-24T09:07:57;20.40;99.90
10175;DHT22;18221;38.704;0.152;2023-04-24T09:10:29;20.50;99.90
10175;DHT22;18221;38.704;0.152;2023-04-24T09:13:03;20.50;99.90
10175;DHT22;18221;38.704;0.152;2023-04-24T09:15:33;20.50;99.90
10175;DHT22;18221;38.704;0.152;2023-04-24T09:18:01;20.50;99.90
10175;DHT22;18221;38.704;0.152;2023-04-24T09:20:33;20.50;99.90
10175;DHT22;18221;38.704;0.152;2023-04-24T09:23:03;20.60;99.90
10175;DHT22;18221;38.704;0.152;2023-04-24T09:25:34;20.70;99.90
10175;DHT22;18221;38.704;0.152;2023-04-24T09:28:04;20.70;99.90
10175;DHT22;18221;38.704;0.152;2023-04-24T09:30:33;20.70;99.90
10175;DHT22;18221;38.704;0.152;2023-04-24T09:33:12;20.70;99.90
10175;DHT22;18221;38.704;0.152;2023-04-24T09:35:50;20.70;99.90
10175;DHT22;18221;38.704;0.152;2023-04-24T09:38:22;20.60;99.90
10175;DHT22;18221;38.704;0.152;2023-04-24T09:41:02;20.60;99.90
10175;DHT22;18221;38.704;0.152;2023-04-24T09:43:35;20.60;99.90
10175;DHT22;18221;38.704;0.152;2023-04-24T09:46:08;20.60;99.90
10175;DHT22;18221;38.704;0.152;2023-04-24T09:48:38;20.60;99.90
10175;DHT22;18221;38.704;0.152;2023-04-24T09:51:06;20.70;99.90
10175;DHT22;18221;38.704;0.152;2023-04-24T09:53:36;20.70;99.90
10175;DHT22;18221;38.704;0.152;2023-04-24T09:56:09;20.80;99.90
10175;DHT22;18221;38.704;0.152;2023-04-24T09:58:40;20.90;99.90
10175;DHT22;18221;38.704;0.152;2023-04-24T10:01:09;20.90;99.90
10175;DHT22;18221;38.704;0.152;2023-04-24T10:03:38;20.90;99.90
10175;DHT22;18221;38.704;0.152;2023-04-24T10:06:12;21.00;99.90
10175;DHT22;18221;38.704;0.152;2023-04-24T10:08:41;21.00;99.90
10175;DHT22;18221;38.704;0.152;2023-04-24T10:11:14;21.00;99.90
10175;DHT22;18221;38.704;0.152;2023-04-24T10:13:43;21.10;99.90
10175;DHT22;18221;38.704;0.152;2023-04-24T10:16:12;21.10;99.90
10175;DHT22;18221;38.704;0.152;2023-04-24T10:18:42;21.10;99.90
10175;DHT22;18221;38.704;0.152;2023-04-24T10:21:12;21.20;99.90
10175;DHT22;18221;38.704;0.152;2023-04-24T10:23:42;21.20;99.90
10175;DHT22;18221;38.704;0.152;2023-04-24T10:26:16;21.20;99.90
10175;DHT22;18221;38.704;0.152;2023-04-24T10:28:46;21.10;99.90
10175;DHT22;18221;38.704;0.152;2023-04-24T10:31:16;21.20;99.90
10175;DHT22;18221;38.704;0.152;2023-04-24T10:33:46;21.20;99.90
10175;DHT22;18221;38.704;0.152;2023-04-24T10:36:22;21.20;99.90
10175;DHT22;18221;38.704;0.152;2023-04-24T10:38:55;21.30;99.90
10175;DHT22;18221;38.704;0.152;2023-04-24T10:41:28;21.40;99.90
10175;DHT22;18221;38.704;0.152;2023-04-24T10:44:05;21.40;99.90
10175;DHT22;18221;38.704;0.152;2023-04-24T10:46:36;21.50;99.90
10175;DHT22;18221;38.704;0.152;2023-04-24T10:49:07;21.60;99.90
10175;DHT22;18221;38.704;0.152;2023-04-24T10:51:50;21.50;99.90
10175;DHT22;18221;38.704;0.152;2023-04-24T10:54:24;21.50;99.90
10175;DHT22;18221;38.704;0.152;2023-04-24T10:57:25;21.50;99.90
10175;DHT22;18221;38.704;0.152;2023-04-24T11:00:20;21.50;99.90
10175;DHT22;18221;38.704;0.152;2023-04-24T11:02:53;21.60;99.90
10175;DHT22;18221;38.704;0.152;2023-04-24T11:05:50;21.60;99.90
10175;DHT22;18221;38.704;0.152;2023-04-24T11:08:32;21.60;99.90
10175;DHT22;18221;38.704;0.152;2023-04-24T11:11:09;21.70;99.90
10175;DHT22;18221;38.704;0.152;2023-04-24T11:14:03;21.70;99.90
10175;DHT22;18221;38.704;0.152;2023-04-24T11:16:43;21.70;99.90
10175;DHT22;18221;38.704;0.152;2023-04-24T11:19:23;21.60;99.90
10175;DHT22;18221;38.704;0.152;2023-04-24T11:21:58;21.60;99.90
10175;DHT22;18221;38.704;0.152;2023-04-24T11:24:31;21.60;99.90
10175;DHT22;18221;38.704;0.152;2023-04-24T11:27:12;21.60;99.90
10175;DHT22;18221;38.704;0.152;2023-04-24T11:29:46;21.60;99.90
10175;DHT22;18221;38.704;0.152;2023-04-24T11:32:23;21.60;99.90
10175;DHT22;18221;38.704;0.152;2023-04-24T11:34:55;21.60;99.90
10175;DHT22;18221;38.704;0.152;2023-04-24T11:37:27;21.60;99.90
10175;DHT22;18221;38.704;0.152;2023-04-24T11:39:58;21.70;99.90
10175;DHT22;18221;38.704;0.152;2023-04-24T11:42:28;21.80;99.90
10175;DHT22;18221;38.704;0.152;2023-04-24T11:45:08;21.80;99.90
10175;DHT22;18221;38.704;0.152;2023-04-24T11:47:38;21.80;99.90
10175;DHT22;18221;38.704;0.152;2023-04-24T11:50:08;21.80;99.90
10175;DHT22;18221;38.704;0.152;2023-04-24T11:52:40;21.70;99.90
10175;DHT22;18221;38.704;0.152;2023-04-24T11:55:24;21.60;99.90
10175;DHT22;18221;38.704;0.152;2023-04-24T11:57:55;21.60;99.90
10175;DHT22;18221;38.704;0.152;2023-04-24T12:00:27;21.70;99.90
10175;DHT22;18221;38.704;0.152;2023-04-24T12:03:05;21.70;99.90
10175;DHT22;18221;38.704;0.152;2023-04-24T12:05:34;21.70;99.90
10175;DHT22;18221;38.704;0.152;2023-04-24T12:08:04;21.80;99.90
10175;DHT22;18221;38.704;0.152;2023-04-24T12:10:33;21.90;99.90
10175;DHT22;18221;38.704;0.152;2023-04-24T12:13:03;22.00;99.90
10175;DHT22;18221;38.704;0.152;2023-04-24T12:15:33;22.20;99.90
10175;DHT22;18221;38.704;0.152;2023-04-24T12:18:04;22.10;99.90
10175;DHT22;18221;38.704;0.152;2023-04-24T12:20:33;22.10;99.90
10175;DHT22;18221;38.704;0.152;2023-04-24T12:23:03;19.00;99.90
10175;DHT22;18221;38.704;0.152;2023-04-24T12:25:32;22.00;99.90
10175;DHT22;18221;38.704;0.152;2023-04-24T12:28:12;22.00;99.90
10175;DHT22;18221;38.704;0.152;2023-04-24T15:55:03;22.40;99.90
10175;DHT22;18221;38.704;0.152;2023-04-24T15:57:42;22.30;99.90
10175;DHT22;18221;38.704;0.152;2023-04-24T16:00:12;22.40;99.90
10175;DHT22;18221;38.704;0.152;2023-04-24T16:02:41;22.30;99.90
10175;DHT22;18221;38.704;0.152;2023-04-24T16:05:11;22.20;99.90
10175;DHT22;18221;38.704;0.152;2023-04-24T16:07:40;22.30;99.90
10175;DHT22;18221;38.704;0.152;2023-04-24T16:10:11;22.30;99.90
10175;DHT22;18221;38.704;0.152;2023-04-24T16:12:40;22.20;99.90
10175;DHT22;18221;38.704;0.152;2023-04-24T16:15:10;22.10;99.90
10175;DHT22;18221;38.704;0.152;2023-04-24T16:17:39;22.10;99.90
10175;DHT22;18221;38.704;0.152;2023-04-24T16:20:07;22.10;99.90
10175;DHT22;18221;38.704;0.152;2023-04-24T16:22:38;22.10;99.90
10175;DHT22;18221;38.704;0.152;2023-04-24T16:25:08;22.00;99.90
10175;DHT22;18221;38.704;0.152;2023-04-24T16:27:39;21.80;99.90
10175;DHT22;18221;38.704;0.152;2023-04-24T16:30:08;21.80;99.90
10175;DHT22;18221;38.704;0.152;2023-04-24T16:32:38;21.70;99.90
10175;DHT22;18221;38.704;0.152;2023-04-24T16:35:07;21.70;99.90
10175;DHT22;18221;38.704;0.152;2023-04-24T16:37:36;21.70;99.90
10175;DHT22;18221;38.704;0.152;2023-04-24T16:40:06;21.70;99.90
10175;DHT22;18221;38.704;0.152;2023-04-24T16:42:38;21.70;99.90
10175;DHT22;18221;38.704;0.152;2023-04-24T16:45:07;21.50;99.90
10175;DHT22;18221;38.704;0.152;2023-04-24T16:47:45;21.50;99.90
10175;DHT22;18221;38.704;0.152;2023-04-24T16:50:14;21.40;99.90
10175;DHT22;18221;38.704;0.152;2023-04-24T16:52:43;21.30;99.90
10175;DHT22;18221;38.704;0.152;2023-04-24T16:55:12;21.20;99.90
10175;DHT22;18221;38.704;0.152;2023-04-24T16:57:42;21.10;99.90
10175;DHT22;18221;38.704;0.152;2023-04-24T17:00:12;21.10;99.90
10175;DHT22;18221;38.704;0.152;2023-04-24T17:02:42;21.00;99.90
10175;DHT22;18221;38.704;0.152;2023-04-24T17:05:14;20.90;99.90
10175;DHT22;18221;38.704;0.152;2023-04-24T17:07:44;20.80;99.90
10175;DHT22;18221;38.704;0.152;2023-04-24T17:10:13;20.80;99.90
10175;DHT22;18221;38.704;0.152;2023-04-24T17:12:43;20.70;99.90
10175;DHT22;18221;38.704;0.152;2023-04-24T17:15:12;20.60;99.90
10175;DHT22;18221;38.704;0.152;2023-04-24T17:17:40;20.50;99.90
10175;DHT22;18221;38.704;0.152;2023-04-24T17:20:12;20.40;99.90
10175;DHT22;18221;38.704;0.152;2023-04-24T17:22:41;20.30;99.90
10175;DHT22;18221;38.704;0.152;2023-04-24T17:25:10;20.20;99.90
10175;DHT22;18221;38.704;0.152;2023-04-24T17:27:39;20.30;99.90
10175;DHT22;18221;38.704;0.152;2023-04-24T17:30:11;20.20;99.90
10175;DHT22;18221;38.704;0.152;2023-04-24T17:32:41;20.20;99.90
10175;DHT22;18221;38.704;0.152;2023-04-24T17:38:15;20.30;99.90
10175;DHT22;18221;38.704;0.152;2023-04-24T17:40:44;20.20;99.90
10175;DHT22;18221;38.704;0.152;2023-04-24T17:43:13;20.20;99.90
10175;DHT22;18221;38.704;0.152;2023-04-24T17:45:45;20.20;99.90
10175;DHT22;18221;38.704;0.152;2023-04-24T17:48:15;20.20;99.90
10175;DHT22;18221;38.704;0.152;2023-04-24T17:50:45;20.00;99.90
10175;DHT22;18221;38.704;0.152;2023-04-24T17:53:14;20.00;99.90
10175;DHT22;18221;38.704;0.152;2023-04-24T17:55:44;19.90;99.90
10175;DHT22;18221;38.704;0.152;2023-04-24T17:58:14;20.00;99.90
10175;DHT22;18221;38.704;0.152;2023-04-24T18:00:48;20.00;99.90
10175;DHT22;18221;38.704;0.152;2023-04-24T18:03:16;20.00;99.90
10175;DHT22;18221;38.704;0.152;2023-04-24T18:05:45;20.00;99.90
10175;DHT22;18221;38.704;0.152;2023-04-24T18:08:14;20.00;99.90
10175;DHT22;18221;38.704;0.152;2023-04-24T18:10:43;19.90;99.90
10175;DHT22;18221;38.704;0.152;2023-04-24T18:13:12;19.90;99.90
10175;DHT22;18221;38.704;0.152;2023-04-24T18:15:41;19.90;99.90
10175;DHT22;18221;38.704;0.152;2023-04-24T18:18:11;19.90;99.90
10175;DHT22;18221;38.704;0.152;2023-04-24T18:20:45;19.90;99.90
10175;DHT22;18221;38.704;0.152;2023-04-24T18:23:32;19.80;99.90
10175;DHT22;18221;38.704;0.152;2023-04-24T18:26:01;19.80;99.90
10175;DHT22;18221;38.704;0.152;2023-04-24T18:28:30;19.80;99.90
10175;DHT22;18221;38.704;0.152;2023-04-24T18:31:00;19.80;99.90
10175;DHT22;18221;38.704;0.152;2023-04-24T18:33:30;19.70;99.90
10175;DHT22;18221;38.704;0.152;2023-04-24T18:35:59;19.70;99.90
10175;DHT22;18221;38.704;0.152;2023-04-24T18:38:29;19.70;99.90
10175;DHT22;18221;38.704;0.152;2023-04-24T18:40:57;19.70;99.90
10175;DHT22;18221;38.704;0.152;2023-04-24T18:43:26;19.60;99.90
10175;DHT22;18221;38.704;0.152;2023-04-24T18:45:57;19.60;99.90
10175;DHT22;18221;38.704;0.152;2023-04-24T18:48:26;19.60;99.90
10175;DHT22;18221;38.704;0.152;2023-04-24T18:50:59;19.50;99.90
10175;DHT22;18221;38.704;0.152;2023-04-24T18:53:28;19.40;99.90
10175;DHT22;18221;38.704;0.152;2023-04-24T18:55:57;19.40;99.90
10175;DHT22;18221;38.704;0.152;2023-04-24T18:58:26;19.40;99.90
10175;DHT22;18221;38.704;0.152;2023-04-24T19:01:00;19.40;99.90
10175;DHT22;18221;38.704;0.152;2023-04-24T19:03:29;19.30;99.90
10175;DHT22;18221;38.704;0.152;2023-04-24T19:05:59;19.30;99.90
10175;DHT22;18221;38.704;0.152;2023-04-24T19:08:30;19.30;99.90
10175;DHT22;18221;38.704;0.152;2023-04-24T19:10:59;19.30;99.90
10175;DHT22;18221;38.704;0.152;2023-04-24T19:13:29;19.30;99.90
10175;DHT22;18221;38.704;0.152;2023-04-24T19:15:58;19.30;99.90
10175;DHT22;18221;38.704;0.152;2023-04-24T19:18:27;19.30;99.90
10175;DHT22;18221;38.704;0.152;2023-04-24T19:20:56;19.30;99.90
10175;DHT22;18221;38.704;0.152;2023-04-24T19:23:35;19.30;99.90